Morehead City, NC

5:13 PM EDT on August 23, 2016 (GMT -0400)
MoreheadCityWeather.Com | | Change Station

Elev 10 ft 34.73 °N, 76.75 °W | Updated 5 seconds ago

Partly Cloudy
Partly Cloudy
82.9 °F
Feels Like 86 °F
N
2.7
Wind Variable Wind from NNE
Gusts 10.4 mph

Today
High -- | Low -- °F
--% Chance of Precip.
Yesterday
High -- | Low -- °F
Precip. -- in
Pressure 30.23 in
Visibility 10.0 miles
Clouds Few 5000 ft
Heat Index 86 °F
Dew Point 68 °F
Humidity 62%
Rainfall 0.00 in
Snow Depth Not available.
6:33 AM 7:44 PM
Waning Gibbous, 64% visible
METAR KMRH 232058Z AUTO 06009G15KT 10SM FEW050 29/17 A3023 RMK AO2 SLP236 T02890172 56016 TSNO
Pressure 30.23 in
Visibility 10.0 miles
Clouds Few 5000 ft
Heat Index 86 °F
Dew Point 68 °F
Humidity 62%
Rainfall 0.00 in
Snow Depth Not available.
6:33 AM 7:44 PM
Waning Gibbous, 64% visible
METAR KMRH 232058Z AUTO 06009G15KT 10SM FEW050 29/17 A3023 RMK AO2 SLP236 T02890172 56016 TSNO
We continue to monitor Invest 99L for the possibility of development into a tropical depression or storm as it approaches the Lesser Antilles, then heads in the general direction of the Bahamas late in the week.

Invest 99L will potentially be impactful in the near-future as it spreads locally heavy rain into the Leeward Islands and eventually Puerto Rico. A flash flood watch is in effect for the Virgin Islands and Puerto Rico from overnight tonight until noon on Thursday.

10-Day Weather Forecast

Almanac

Astronomy

Aug. 23, 2016 Rise Set
Actual Time
Civil Twilight
Nautical Twilight
Astronomical Twilight
Moon
Length of Visible Light
Length of Day
Tomorrow will be .
, % of the Moon is Illuminated

Today's Extremes

State Highs State Lows

Community

WunderPhotos

Upload Photos

1,934,456 photos uploaded!

WunderBlog® & News

Nearby

Air Quality

  Air Quality AQ Index Pollutant
Not available.

Snow Depth

Station Depth Elevation

Earthquake Activity

City Distance Mag. Time & Date
Minimum magnitude displayed is 2.5.

Coastal Water Temperatures

Place Temperature

Stations

Nearby Weather Stations

Station Location Temp. Windchill Dew Point Humidity Wind Precip. Elev Updated Type
                   

Watches & Warnings

There are currently no watches in effect.